createdAt,value
2023-03-28T00:02:15.549Z,2.20
2023-03-28T00:04:42.595Z,2.33
2023-03-28T00:07:09.692Z,2.35
2023-03-28T00:09:37.639Z,3.00
2023-03-28T00:12:04.985Z,2.40
2023-03-28T00:14:32.036Z,2.33
2023-03-28T00:17:02.080Z,2.72
2023-03-28T00:19:33.284Z,2.35
2023-03-28T00:22:00.389Z,2.97
2023-03-28T00:24:28.138Z,2.65
2023-03-28T00:26:55.255Z,2.33
2023-03-28T00:29:23.319Z,2.45
2023-03-28T00:31:51.649Z,2.30
2023-03-28T00:34:18.944Z,2.83
2023-03-28T00:36:46.117Z,2.70
2023-03-28T00:39:13.587Z,3.05
2023-03-28T00:41:43.642Z,3.05
2023-03-28T00:44:47.681Z,2.53
2023-03-28T00:47:36.908Z,2.47
2023-03-28T00:50:07.289Z,2.40
2023-03-28T00:53:29.568Z,2.95
2023-03-28T00:56:02.495Z,2.90
2023-03-28T00:58:33.820Z,2.50
2023-03-28T01:01:01.605Z,2.70
2023-03-28T01:03:34.734Z,3.15
2023-03-28T01:06:06.411Z,3.47
2023-03-28T01:08:41.304Z,2.40
2023-03-28T01:11:11.554Z,3.30
2023-03-28T01:13:44.237Z,3.13
2023-03-28T01:16:21.209Z,3.28
2023-03-28T01:18:52.900Z,3.13
2023-03-28T01:21:40.091Z,3.45
2023-03-28T01:24:34.603Z,2.80
2023-03-28T01:27:01.585Z,3.30
2023-03-28T01:29:45.332Z,2.90
2023-03-28T01:32:35.943Z,4.00
2023-03-28T01:35:29.295Z,4.10
2023-03-28T01:38:33.244Z,4.18
2023-03-28T01:41:06.514Z,3.78
2023-03-28T01:44:34.187Z,3.80
2023-03-28T01:47:31.038Z,4.25
2023-03-28T01:50:09.001Z,3.85
2023-03-28T01:52:46.083Z,3.95
2023-03-28T01:55:21.949Z,3.75
2023-03-28T01:58:05.655Z,3.05
2023-03-28T02:00:46.172Z,3.28
2023-03-28T02:03:36.710Z,4.80
2023-03-28T02:06:15.259Z,4.10
2023-03-28T02:08:46.506Z,4.68
2023-03-28T02:11:19.490Z,4.35
2023-03-28T02:14:02.484Z,4.82
2023-03-28T02:17:33.723Z,4.70
2023-03-28T02:20:12.624Z,4.32
2023-03-28T02:23:07.886Z,4.65
2023-03-28T02:25:55.244Z,3.83
2023-03-28T02:28:45.129Z,3.63
2023-03-28T02:31:28.123Z,5.15
2023-03-28T02:33:56.865Z,5.57
2023-03-28T02:36:31.844Z,5.55
2023-03-28T02:39:07.642Z,4.63
2023-03-28T02:41:49.412Z,4.93
2023-03-28T02:44:45.401Z,4.63
2023-03-28T02:47:19.637Z,5.00
2023-03-28T02:49:50.660Z,4.57
2023-03-28T02:52:35.216Z,4.63
2023-03-28T02:55:10.287Z,3.38
2023-03-28T02:58:00.560Z,3.65
2023-03-28T03:00:27.826Z,3.60
2023-03-28T03:02:55.024Z,3.20
2023-03-28T03:05:22.642Z,3.67
2023-03-28T03:07:50.630Z,3.53
2023-03-28T03:10:18.271Z,2.80
2023-03-28T03:12:47.487Z,2.53
2023-03-28T03:15:17.291Z,2.88
2023-03-28T03:17:53.863Z,2.85
2023-03-28T03:20:26.932Z,2.30
2023-03-28T03:22:55.220Z,2.55
2023-03-28T03:25:22.443Z,2.00
2023-03-28T03:27:56.213Z,1.88
2023-03-28T03:30:23.772Z,1.60
2023-03-28T03:33:17.004Z,2.20
2023-03-28T03:35:46.950Z,2.03
2023-03-28T03:38:15.928Z,1.52
2023-03-28T03:40:42.925Z,1.63
2023-03-28T03:43:11.364Z,1.95
2023-03-28T03:45:40.843Z,1.35
2023-03-28T03:48:09.418Z,1.65
2023-03-28T03:50:37.737Z,1.40
2023-03-28T03:53:11.700Z,0.80
2023-03-28T03:55:46.944Z,1.00
2023-03-28T03:58:14.142Z,1.38
2023-03-28T04:00:44.814Z,1.50
2023-03-28T04:03:27.204Z,1.02
2023-03-28T04:05:56.504Z,1.17
2023-03-28T04:08:24.036Z,1.20
2023-03-28T04:10:51.219Z,1.02
2023-03-28T04:13:18.267Z,0.85
2023-03-28T04:15:51.887Z,1.30
2023-03-28T04:18:21.961Z,0.90
2023-03-28T04:20:55.362Z,1.20
2023-03-28T04:23:43.762Z,1.40
2023-03-28T04:26:30.125Z,0.93
2023-03-28T04:29:05.350Z,1.58
2023-03-28T04:31:39.076Z,1.40
2023-03-28T04:34:30.262Z,1.30
2023-03-28T04:37:18.111Z,1.45
2023-03-28T04:39:54.345Z,1.58
2023-03-28T04:42:47.109Z,1.50
2023-03-28T04:45:40.281Z,1.33
2023-03-28T04:48:14.812Z,1.30
2023-03-28T04:50:43.563Z,1.45
2023-03-28T04:53:14.224Z,1.30
2023-03-28T04:56:00.342Z,1.45
2023-03-28T04:58:29.173Z,1.40
2023-03-28T05:00:56.475Z,1.70
2023-03-28T05:03:42.463Z,1.60
2023-03-28T05:06:09.804Z,1.75
2023-03-28T05:08:37.294Z,1.92
2023-03-28T05:11:04.616Z,1.92
2023-03-28T05:13:31.633Z,1.33
2023-03-28T05:16:09.380Z,1.65
2023-03-28T05:18:59.067Z,1.38
2023-03-28T05:21:46.513Z,1.63
2023-03-28T05:24:13.563Z,1.90
2023-03-28T05:26:40.626Z,2.20
2023-03-28T05:29:08.894Z,2.17
2023-03-28T05:31:35.976Z,2.58
2023-03-28T05:34:17.059Z,2.50
2023-03-28T05:36:47.070Z,1.85
2023-03-28T05:39:26.682Z,2.20
2023-03-28T05:42:00.690Z,1.85
2023-03-28T05:44:27.855Z,1.90
2023-03-28T05:49:41.921Z,2.60
2023-03-28T05:52:10.559Z,2.13
2023-03-28T05:54:38.847Z,2.03
2023-03-28T05:57:06.380Z,2.22
2023-03-28T05:59:33.438Z,2.35
2023-03-28T06:02:03.488Z,2.88
2023-03-28T06:04:30.789Z,1.73
2023-03-28T06:06:57.963Z,2.70
2023-03-28T06:09:27.257Z,2.22
2023-03-28T06:11:59.031Z,2.67
2023-03-28T06:14:26.926Z,1.65
2023-03-28T06:16:56.896Z,2.63
2023-03-28T06:19:26.431Z,1.95
2023-03-28T06:21:55.508Z,1.90
2023-03-28T06:24:22.829Z,1.75
2023-03-28T06:26:50.540Z,2.63
2023-03-28T06:29:21.916Z,2.10
2023-03-28T06:31:53.074Z,2.20
2023-03-28T06:34:21.235Z,2.30
2023-03-28T06:36:56.514Z,2.10
2023-03-28T06:39:27.619Z,2.20
2023-03-28T06:41:57.834Z,2.08
2023-03-28T06:44:33.062Z,2.08
2023-03-28T06:47:13.959Z,1.98
2023-03-28T06:49:41.817Z,2.25
2023-03-28T06:52:28.932Z,1.98
2023-03-28T06:54:59.134Z,2.22
2023-03-28T06:57:26.786Z,2.03
2023-03-28T07:00:07.385Z,1.77
2023-03-28T07:02:54.481Z,2.33
2023-03-28T07:05:21.757Z,2.40
2023-03-28T07:08:21.590Z,1.77
2023-03-28T07:10:49.131Z,1.60
2023-03-28T07:13:16.496Z,1.80
2023-03-28T07:16:06.888Z,2.08
2023-03-28T07:18:35.140Z,1.90
2023-03-28T07:21:14.370Z,2.03
2023-03-28T07:23:42.300Z,1.90
2023-03-28T07:26:13.485Z,1.55
2023-03-28T07:28:41.072Z,1.83
2023-03-28T07:31:08.707Z,1.73
2023-03-28T07:33:38.172Z,1.75
2023-03-28T07:36:16.363Z,1.58
2023-03-28T07:38:48.926Z,1.52
2023-03-28T07:41:18.202Z,1.95
2023-03-28T07:43:45.839Z,1.95
2023-03-28T07:46:15.173Z,1.70
2023-03-28T07:48:43.370Z,1.83
2023-03-28T07:51:11.482Z,1.95
2023-03-28T07:53:39.307Z,1.90
2023-03-28T07:56:11.954Z,1.63
2023-03-28T07:59:14.827Z,1.83
2023-03-28T08:01:45.745Z,1.63
2023-03-28T08:04:14.158Z,1.75
2023-03-28T08:06:58.228Z,1.83
2023-03-28T08:09:25.472Z,2.00
2023-03-28T08:12:03.592Z,2.53
2023-03-28T08:14:30.806Z,1.77
2023-03-28T08:16:58.287Z,1.52
2023-03-28T08:19:25.805Z,2.63
2023-03-28T08:22:12.577Z,1.98
2023-03-28T08:24:52.647Z,2.05
2023-03-28T08:27:22.938Z,2.30
2023-03-28T08:29:53.763Z,2.28
2023-03-28T08:32:21.018Z,1.85
2023-03-28T08:34:48.484Z,1.63
2023-03-28T08:37:18.173Z,1.88
2023-03-28T08:39:48.693Z,1.45
2023-03-28T08:42:36.451Z,2.25
2023-03-28T08:45:04.474Z,1.90
2023-03-28T08:47:33.406Z,1.65
2023-03-28T08:50:14.870Z,1.80
2023-03-28T08:52:43.737Z,1.70
2023-03-28T08:55:28.334Z,1.70
2023-03-28T08:57:56.471Z,1.85
2023-03-28T09:00:31.399Z,1.50
2023-03-28T09:02:59.416Z,1.77
2023-03-28T09:05:38.678Z,2.35
2023-03-28T09:08:29.182Z,1.77
2023-03-28T09:11:09.122Z,2.10
2023-03-28T09:14:00.536Z,1.15
2023-03-28T09:16:52.401Z,1.80
2023-03-28T09:19:44.878Z,1.90
2023-03-28T09:23:11.223Z,1.98
2023-03-28T09:26:25.426Z,2.17
2023-03-28T09:29:21.351Z,1.45
2023-03-28T09:32:57.689Z,1.60
2023-03-28T09:35:28.204Z,1.20
2023-03-28T09:38:05.050Z,1.42
2023-03-28T09:40:35.058Z,1.67
2023-03-28T09:43:59.526Z,1.50
2023-03-28T10:17:45.905Z,1.67
2023-03-28T10:20:24.978Z,1.80
2023-03-28T10:22:57.262Z,1.63
2023-03-28T10:25:42.612Z,1.60
2023-03-28T10:28:17.841Z,2.05
2023-03-28T10:30:54.125Z,1.45
2023-03-28T10:33:28.058Z,2.03
2023-03-28T10:36:30.019Z,1.80
2023-03-28T10:39:00.152Z,1.75
2023-03-28T10:42:05.866Z,1.23
2023-03-28T10:45:00.969Z,2.10
2023-03-28T10:47:31.572Z,1.98
2023-03-28T10:50:03.944Z,1.67
2023-03-28T10:52:47.684Z,1.70
2023-03-28T10:55:26.547Z,1.50
2023-03-28T10:58:25.651Z,1.83
2023-03-28T11:01:08.880Z,2.10
2023-03-28T11:03:50.643Z,1.60
2023-03-28T11:06:26.457Z,1.65
2023-03-28T11:09:08.127Z,1.58
2023-03-28T11:12:27.940Z,2.28
2023-03-28T11:15:09.849Z,2.03
2023-03-28T11:17:45.756Z,1.80
2023-03-28T11:20:22.682Z,1.83
2023-03-28T11:23:10.055Z,2.30
2023-03-28T11:26:17.236Z,2.50
2023-03-28T11:29:43.688Z,3.72
2023-03-28T11:32:45.896Z,2.75
2023-03-28T11:35:29.152Z,1.98
2023-03-28T11:38:02.695Z,1.67
2023-03-28T11:40:37.760Z,2.43
2023-03-28T11:43:13.742Z,1.40
2023-03-28T11:45:51.937Z,1.42
2023-03-28T11:48:55.357Z,2.30
2023-03-28T11:51:36.510Z,1.63
2023-03-28T11:54:16.394Z,2.10
2023-03-28T11:57:02.794Z,1.73
2023-03-28T11:59:43.293Z,1.60
2023-03-28T12:02:35.839Z,2.30
2023-03-28T12:05:19.450Z,1.88
2023-03-28T12:08:10.646Z,2.58
2023-03-28T12:10:43.215Z,1.55
2023-03-28T12:13:41.732Z,1.92
2023-03-28T12:16:17.878Z,1.75
2023-03-28T12:18:50.687Z,1.65
2023-03-28T12:21:41.694Z,1.55
2023-03-28T12:24:38.096Z,1.70
2023-03-28T12:27:33.868Z,2.53
2023-03-28T12:30:21.444Z,2.00
2023-03-28T12:32:56.617Z,1.75
2023-03-28T12:36:10.647Z,1.80
2023-03-28T12:38:57.929Z,2.10
2023-03-28T12:41:40.421Z,2.28
2023-03-28T12:44:12.956Z,2.13
2023-03-28T12:46:55.974Z,2.28
2023-03-28T12:49:46.092Z,2.15
2023-03-28T12:52:28.697Z,2.08
2023-03-28T12:55:03.057Z,2.65
2023-03-28T12:57:48.555Z,2.33
2023-03-28T13:05:17.314Z,2.30
2023-03-28T13:08:14.837Z,2.15
2023-03-28T13:10:57.765Z,2.42
2023-03-28T13:13:44.289Z,2.55
2023-03-28T13:16:21.993Z,1.88
2023-03-28T13:19:06.759Z,2.15
2023-03-28T13:22:00.427Z,2.35
2023-03-28T13:24:36.352Z,2.22
2023-03-28T13:27:30.767Z,1.80
2023-03-28T13:30:07.844Z,1.40
2023-03-28T13:32:40.913Z,1.10
2023-03-28T13:35:28.158Z,1.10
2023-03-28T13:40:50.820Z,1.33
2023-03-28T13:43:36.466Z,1.08
2023-03-28T13:46:18.977Z,0.63
2023-03-28T13:49:13.532Z,0.90
2023-03-28T13:51:45.113Z,1.00
2023-03-28T13:54:12.693Z,0.95
2023-03-28T13:56:44.570Z,1.10
2023-03-28T13:59:18.350Z,1.30
2023-03-28T14:01:47.625Z,1.27
2023-03-28T14:04:26.458Z,0.93
2023-03-28T14:06:55.005Z,1.10
2023-03-28T14:09:32.496Z,0.75
2023-03-28T14:12:05.110Z,0.75
2023-03-28T14:14:48.468Z,1.40
2023-03-28T14:17:18.729Z,1.30
2023-03-28T14:19:54.165Z,1.75
2023-03-28T14:22:26.286Z,1.45
2023-03-28T14:24:58.030Z,0.88
2023-03-28T14:27:27.674Z,1.13
2023-03-28T14:29:56.872Z,0.65
2023-03-28T14:32:33.088Z,0.40
2023-03-28T14:35:30.914Z,0.45
2023-03-28T14:38:00.998Z,0.30
2023-03-28T14:40:34.734Z,0.52
2023-03-28T14:43:04.575Z,0.60
2023-03-28T14:45:37.665Z,0.40
2023-03-28T14:48:14.329Z,0.60
2023-03-28T14:50:42.045Z,0.70
2023-03-28T14:53:17.295Z,0.88
2023-03-28T14:55:46.616Z,0.60
2023-03-28T14:58:14.218Z,0.95
2023-03-28T15:00:44.074Z,0.90
2023-03-28T15:03:32.265Z,1.00
2023-03-28T15:06:01.127Z,1.42
2023-03-28T15:08:37.025Z,1.30
2023-03-28T15:11:33.750Z,1.30
2023-03-28T15:14:21.948Z,2.53
2023-03-28T15:16:49.247Z,1.60
2023-03-28T15:19:28.466Z,2.00
2023-03-28T15:21:59.021Z,2.03
2023-03-28T15:24:28.345Z,1.83
2023-03-28T15:27:01.734Z,1.65
2023-03-28T15:29:33.551Z,2.10
2023-03-28T15:32:16.833Z,1.77
2023-03-28T15:34:46.718Z,1.88
2023-03-28T15:37:18.663Z,2.65
2023-03-28T15:39:49.575Z,1.80
2023-03-28T15:42:19.677Z,2.08
2023-03-28T15:44:58.787Z,2.10
2023-03-28T15:47:34.478Z,1.58
2023-03-28T15:50:07.642Z,1.90
2023-03-28T15:52:35.887Z,1.85
2023-03-28T15:55:05.831Z,2.00
2023-03-28T15:57:33.203Z,1.88
2023-03-28T16:00:01.311Z,1.95
2023-03-28T16:02:28.453Z,2.42
2023-03-28T16:05:02.460Z,2.08
2023-03-28T16:07:35.288Z,2.58
2023-03-28T16:10:02.482Z,2.90
2023-03-28T16:12:31.362Z,2.80
2023-03-28T16:15:19.733Z,3.25
2023-03-28T16:17:56.209Z,2.10
2023-03-28T16:20:52.296Z,1.92
2023-03-28T16:23:19.333Z,1.63
2023-03-28T16:25:46.790Z,1.67
2023-03-28T16:28:18.509Z,2.00
2023-03-28T16:30:46.299Z,1.90
2023-03-28T16:33:14.161Z,1.60
2023-03-28T16:35:41.294Z,1.60
2023-03-28T16:38:11.775Z,1.90
2023-03-28T16:40:39.040Z,1.77
2023-03-28T16:43:08.022Z,1.73
2023-03-28T16:45:35.626Z,1.40
2023-03-28T16:48:02.898Z,1.45
2023-03-28T16:50:30.128Z,1.92
2023-03-28T16:52:57.131Z,2.08
2023-03-28T16:55:24.066Z,1.60
2023-03-28T16:57:51.356Z,1.40
2023-03-28T17:00:23.062Z,1.48
2023-03-28T17:02:50.236Z,1.70
2023-03-28T17:05:17.676Z,1.10
2023-03-28T17:07:44.768Z,1.52
2023-03-28T17:10:12.241Z,1.38
2023-03-28T17:12:39.187Z,1.15
2023-03-28T17:15:06.817Z,1.63
2023-03-28T17:17:33.916Z,1.90
2023-03-28T17:20:01.428Z,1.30
2023-03-28T17:22:28.490Z,2.40
2023-03-28T17:24:57.350Z,1.48
2023-03-28T17:27:24.394Z,1.30
2023-03-28T17:29:51.938Z,1.58
2023-03-28T17:32:19.086Z,1.55
2023-03-28T17:34:46.449Z,1.10
2023-03-28T17:37:13.647Z,1.60
2023-03-28T17:39:41.056Z,1.83
2023-03-28T17:42:09.199Z,1.45
2023-03-28T17:44:36.275Z,1.33
2023-03-28T17:47:03.419Z,1.42
2023-03-28T17:49:30.495Z,1.67
2023-03-28T17:51:57.573Z,1.65
2023-03-28T17:54:24.719Z,1.83
2023-03-28T17:56:52.631Z,1.58
2023-03-28T17:59:20.046Z,1.15
2023-03-28T18:01:47.227Z,1.40
2023-03-28T18:04:16.283Z,1.30
2023-03-28T18:07:16.221Z,1.25
2023-03-28T18:09:44.993Z,1.20
2023-03-28T18:12:12.827Z,1.20
2023-03-28T18:14:40.034Z,0.93
2023-03-28T18:17:07.007Z,1.08
2023-03-28T18:19:34.053Z,1.10
2023-03-28T18:22:01.835Z,1.00
2023-03-28T18:24:28.957Z,0.80
2023-03-28T18:26:56.022Z,1.10
2023-03-28T18:29:23.306Z,0.85
2023-03-28T18:31:50.473Z,0.65
2023-03-28T18:34:17.618Z,0.52
2023-03-28T18:36:45.626Z,0.50
2023-03-28T18:39:12.747Z,0.43
2023-03-28T18:41:40.046Z,0.60
2023-03-28T18:44:07.168Z,0.68
2023-03-28T18:46:34.598Z,0.75
2023-03-28T18:49:01.955Z,1.00
2023-03-28T18:51:29.172Z,0.80
2023-03-28T18:53:56.831Z,0.95
2023-03-28T18:56:23.924Z,0.70
2023-03-28T18:58:51.052Z,1.15
2023-03-28T19:01:18.901Z,0.70
2023-03-28T19:03:47.211Z,0.82
2023-03-28T19:06:15.826Z,0.82
2023-03-28T19:08:44.893Z,0.47
2023-03-28T19:11:14.859Z,0.90
2023-03-28T19:13:42.646Z,0.77
2023-03-28T19:16:15.181Z,0.43
2023-03-28T19:18:44.564Z,0.88
2023-03-28T19:21:12.131Z,0.70
2023-03-28T19:23:39.496Z,0.60
2023-03-28T19:26:08.332Z,0.65
2023-03-28T19:28:36.081Z,0.60
2023-03-28T19:31:06.559Z,0.47
2023-03-28T19:33:34.068Z,0.70
2023-03-28T19:36:01.414Z,0.95
2023-03-28T19:38:31.056Z,1.05
2023-03-28T19:41:03.430Z,0.90
2023-03-28T19:43:31.183Z,1.02
2023-03-28T19:46:07.221Z,1.15
2023-03-28T19:48:35.105Z,1.20
2023-03-28T19:51:02.316Z,1.55
2023-03-28T19:53:29.439Z,1.55
2023-03-28T19:55:59.453Z,1.25
2023-03-28T19:58:28.341Z,1.30
2023-03-28T20:00:58.896Z,1.25
2023-03-28T20:03:26.023Z,1.42
2023-03-28T20:05:53.414Z,1.20
2023-03-28T20:08:21.675Z,1.20
2023-03-28T20:10:52.645Z,1.25
2023-03-28T20:13:19.918Z,1.30
2023-03-28T20:15:47.477Z,1.30
2023-03-28T20:18:20.181Z,1.10
2023-03-28T20:20:58.587Z,1.13
2023-03-28T20:23:27.557Z,1.02
2023-03-28T20:25:55.517Z,1.00
2023-03-28T20:28:26.447Z,0.85
2023-03-28T20:30:54.359Z,1.27
2023-03-28T20:33:21.915Z,1.00
2023-03-28T20:35:58.891Z,0.80
2023-03-28T20:38:28.043Z,0.70
2023-03-28T20:40:55.048Z,1.00
2023-03-28T20:43:24.232Z,0.70
2023-03-28T20:45:53.969Z,0.80
2023-03-28T20:48:34.487Z,0.75
2023-03-28T20:51:03.374Z,0.85
2023-03-28T20:53:31.274Z,1.33
2023-03-28T20:56:04.134Z,0.73
2023-03-28T20:58:32.545Z,0.95
2023-03-28T21:01:01.496Z,0.93
2023-03-28T21:03:39.525Z,0.82
2023-03-28T21:06:07.825Z,0.82
2023-03-28T21:08:36.474Z,0.85
2023-03-28T21:11:03.885Z,0.90
2023-03-28T21:13:31.366Z,1.17
2023-03-28T21:15:58.639Z,1.30
2023-03-28T21:18:26.222Z,1.02
2023-03-28T21:20:53.264Z,1.10
2023-03-28T21:23:20.324Z,1.20
2023-03-28T21:25:52.137Z,0.90
2023-03-28T21:28:19.812Z,1.60
2023-03-28T21:30:57.609Z,1.33
2023-03-28T21:33:24.788Z,1.50
2023-03-28T21:35:52.435Z,1.15
2023-03-28T21:38:19.711Z,1.08
2023-03-28T21:40:48.038Z,1.10
2023-03-28T21:43:15.977Z,1.30
2023-03-28T21:45:49.621Z,0.73
2023-03-28T21:48:17.198Z,1.20
2023-03-28T21:50:59.304Z,1.15
2023-03-28T21:53:28.902Z,0.80
2023-03-28T21:55:56.558Z,1.00
2023-03-28T21:58:23.993Z,1.10
2023-03-28T22:00:51.125Z,1.02
2023-03-28T22:03:19.104Z,0.93
2023-03-28T22:05:46.451Z,1.20
2023-03-28T22:08:13.799Z,0.95
2023-03-28T22:10:46.704Z,1.25
2023-03-28T22:13:14.324Z,0.90
2023-03-28T22:15:41.890Z,0.80
2023-03-28T22:18:09.671Z,0.98
2023-03-28T22:20:39.323Z,1.25
2023-03-28T22:23:07.236Z,0.75
2023-03-28T22:25:38.753Z,1.08
2023-03-28T22:28:09.440Z,1.27
2023-03-28T22:30:39.251Z,1.60
2023-03-28T22:33:09.826Z,1.38
2023-03-28T22:35:38.389Z,1.13
2023-03-28T22:38:05.882Z,0.98
2023-03-28T22:40:33.377Z,1.30
2023-03-28T22:43:00.685Z,1.60
2023-03-28T22:45:28.055Z,1.33
2023-03-28T22:47:58.495Z,1.52
2023-03-28T22:50:26.138Z,1.13
2023-03-28T22:52:53.287Z,1.50
2023-03-28T22:55:23.052Z,1.73
2023-03-28T22:57:51.776Z,2.08
2023-03-28T23:00:22.352Z,2.17
2023-03-28T23:02:50.462Z,1.70
2023-03-28T23:05:18.011Z,1.20
2023-03-28T23:07:45.046Z,1.58
2023-03-28T23:10:18.159Z,1.67
2023-03-28T23:12:46.168Z,1.25
2023-03-28T23:15:13.596Z,1.15
2023-03-28T23:17:40.871Z,1.20
2023-03-28T23:20:15.980Z,1.50
2023-03-28T23:22:45.925Z,1.77
2023-03-28T23:25:15.049Z,2.35
2023-03-28T23:27:43.247Z,1.73
2023-03-28T23:30:11.926Z,1.90
2023-03-28T23:32:39.594Z,1.48
2023-03-28T23:35:07.473Z,1.95
2023-03-28T23:37:38.408Z,1.42
2023-03-28T23:40:10.685Z,1.20
2023-03-28T23:42:37.878Z,1.50
2023-03-28T23:45:05.240Z,1.17
2023-03-28T23:47:32.338Z,1.27
2023-03-28T23:49:59.371Z,2.10
2023-03-28T23:52:26.478Z,2.00
2023-03-28T23:54:53.597Z,1.50
2023-03-28T23:57:20.783Z,1.90
2023-03-28T23:59:47.839Z,1.70
